Time;durP1;ratioP1;P1;durP2;ratioP2;P2;SDS_P1;SDS_P2;PMS_P1;PMS_P2;Temp;Humidity;BMP_temperature;BMP_pressure;BME280_temperature;BME280_humidity;BME280_pressure;Samples;Min_cycle;Max_cycle;Signal;HPM_P1;HPM_P2
2023/01/29 00:01:50;;;;;;;19.17;11.98;;;3.40;99.90;;;;;;5075165;28;20040;-82
2023/01/29 00:04:16;;;;;;;17.88;11.88;;;3.40;99.90;;;;;;5073615;28;20098;-82
2023/01/29 00:06:42;;;;;;;20.67;12.27;;;4.20;99.90;;;;;;5083995;28;20492;-82
2023/01/29 00:09:09;;;;;;;19.00;12.70;;;3.40;99.90;;;;;;5073573;28;20124;-82
2023/01/29 00:11:34;;;;;;;17.85;12.40;;;3.90;99.90;;;;;;5057499;28;20439;-82
2023/01/29 00:14:00;;;;;;;20.58;12.00;;;4.60;99.90;;;;;;5072308;28;20039;-82
2023/01/29 00:16:26;;;;;;;19.67;12.50;;;3.40;99.90;;;;;;5074258;28;20035;-81
2023/01/29 00:18:52;;;;;;;21.38;12.60;;;3.40;99.90;;;;;;5073976;28;20043;-81
2023/01/29 00:21:21;;;;;;;19.80;13.05;;;3.40;99.90;;;;;;5057817;28;20484;-82
2023/01/29 00:23:47;;;;;;;19.88;12.32;;;3.40;99.90;;;;;;5073873;28;20384;-80
2023/01/29 00:26:13;;;;;;;19.35;12.85;;;3.40;99.90;;;;;;5057401;28;20065;-82
2023/01/29 00:28:39;;;;;;;21.05;12.57;;;3.80;99.90;;;;;;5090931;28;20093;-82
2023/01/29 00:31:08;;;;;;;18.75;12.35;;;3.40;99.90;;;;;;5073029;28;20044;-82
2023/01/29 00:33:34;;;;;;;20.23;11.20;;;3.80;99.90;;;;;;5057995;28;20043;-82
2023/01/29 00:36:05;;;;;;;17.75;11.98;;;3.40;99.90;;;;;;5072987;28;20476;-82
2023/01/29 00:38:31;;;;;;;20.35;11.85;;;3.40;99.90;;;;;;5089740;28;20365;-82
2023/01/29 00:46:26;;;;;;;19.85;12.20;;;3.40;99.90;;;;;;5090440;28;20052;-82
2023/01/29 00:48:51;;;;;;;19.30;12.57;;;3.50;99.90;;;;;;5057744;28;20565;-82
2023/01/29 00:51:17;;;;;;;19.35;12.95;;;3.70;99.90;;;;;;5056668;28;20043;-82
2023/01/29 00:53:43;;;;;;;19.02;12.38;;;3.40;99.90;;;;;;5056838;28;20412;-82
2023/01/29 00:56:08;;;;;;;21.27;13.05;;;3.40;99.90;;;;;;5040069;28;20090;-83
2023/01/29 00:58:34;;;;;;;19.65;12.95;;;3.90;99.90;;;;;;5053346;28;20078;-82
2023/01/29 01:01:01;;;;;;;19.98;12.13;;;3.40;99.90;;;;;;5056168;28;20123;-82
2023/01/29 01:03:27;;;;;;;19.73;12.52;;;3.40;99.90;;;;;;5073275;28;20044;-82
2023/01/29 01:06:08;;;;;;;18.60;12.80;;;3.40;99.90;;;;;;5056226;28;20068;-82
2023/01/29 01:11:19;;;;;;;17.80;11.93;;;3.60;99.90;;;;;;5089613;28;20047;-82
2023/01/29 01:13:44;;;;;;;17.58;12.07;;;4.60;99.90;;;;;;5072416;28;20046;-81
2023/01/29 01:16:13;;;;;;;19.98;13.13;;;3.50;99.90;;;;;;5072384;28;20048;-81
2023/01/29 01:18:39;;;;;;;20.05;12.55;;;3.50;99.90;;;;;;5090274;28;20032;-82
2023/01/29 01:21:05;;;;;;;18.60;12.80;;;3.50;99.90;;;;;;5072938;28;20071;-82
2023/01/29 01:23:31;;;;;;;17.77;12.15;;;3.50;99.90;;;;;;5071971;28;20073;-82
2023/01/29 01:25:58;;;;;;;17.70;11.88;;;3.50;99.90;;;;;;5073113;28;20032;-82
2023/01/29 01:28:23;;;;;;;19.40;12.18;;;3.80;99.90;;;;;;5090986;28;20437;-81
2023/01/29 01:30:49;;;;;;;19.52;11.77;;;3.80;99.90;;;;;;5072302;28;20116;-82
2023/01/29 01:33:15;;;;;;;18.15;11.70;;;3.50;99.90;;;;;;5039344;28;20135;-82
2023/01/29 01:35:41;;;;;;;17.98;11.50;;;3.40;99.90;;;;;;5055851;28;20048;-82
2023/01/29 01:38:06;;;;;;;21.40;11.32;;;3.50;99.90;;;;;;5054878;28;20044;-82
2023/01/29 01:40:32;;;;;;;16.95;11.70;;;4.80;99.90;;;;;;5053780;28;20040;-82
2023/01/29 01:42:59;;;;;;;18.75;11.85;;;3.80;99.90;;;;;;5054819;28;20067;-81
2023/01/29 01:45:26;;;;;;;16.15;11.52;;;3.60;99.90;;;;;;5090126;28;20040;-83
2023/01/29 01:47:58;;;;;;;14.95;10.38;;;3.50;99.90;;;;;;5089930;28;20036;-81
2023/01/29 01:50:50;;;;;;;17.73;11.55;;;3.60;99.90;;;;;;5071333;28;20040;-81
2023/01/29 01:53:25;;;;;;;18.63;12.50;;;3.60;99.90;;;;;;5089996;28;20113;-82
2023/01/29 01:55:59;;;;;;;19.80;11.60;;;3.60;99.90;;;;;;5088651;28;20088;-81
2023/01/29 01:58:34;;;;;;;15.15;11.55;;;3.60;99.90;;;;;;5094698;28;20035;-81
2023/01/29 02:01:00;;;;;;;15.82;11.70;;;3.60;99.90;;;;;;5071157;28;20105;-82
2023/01/29 02:11:54;;;;;;;16.88;11.98;;;3.60;99.90;;;;;;5088339;28;20036;-81
2023/01/29 02:14:21;;;;;;;21.85;12.50;;;3.60;99.90;;;;;;5073070;28;20099;-82
2023/01/29 02:16:47;;;;;;;18.00;12.05;;;4.90;99.90;;;;;;5054971;28;20064;-82
2023/01/29 02:19:28;;;;;;;16.83;11.82;;;3.60;99.90;;;;;;5065420;28;20121;-82
2023/01/29 02:22:24;;;;;;;17.60;12.45;;;4.70;99.90;;;;;;5072489;28;20097;-82
2023/01/29 02:25:22;;;;;;;16.98;12.68;;;3.60;99.90;;;;;;5088984;28;20488;-82
2023/01/29 02:27:47;;;;;;;17.35;11.85;;;3.60;99.90;;;;;;5089375;28;20099;-82
2023/01/29 02:30:32;;;;;;;17.85;12.43;;;4.40;99.90;;;;;;5072393;28;20519;-80
2023/01/29 02:33:25;;;;;;;20.75;12.88;;;3.60;99.90;;;;;;5092294;28;20040;-81
2023/01/29 02:35:55;;;;;;;19.45;13.15;;;3.60;99.90;;;;;;5075539;28;20088;-82
2023/01/29 02:38:39;;;;;;;18.20;13.18;;;3.60;99.90;;;;;;5075271;28;20073;-81
2023/01/29 02:41:23;;;;;;;17.60;12.18;;;3.60;99.90;;;;;;5076300;28;20052;-81
2023/01/29 02:43:57;;;;;;;21.10;13.38;;;3.60;99.90;;;;;;5075445;28;20039;-80
2023/01/29 02:46:42;;;;;;;18.92;13.75;;;3.60;99.90;;;;;;5092106;28;20048;-82
2023/01/29 02:49:43;;;;;;;19.85;13.63;;;3.60;99.90;;;;;;5075146;28;20048;-82
2023/01/29 02:52:38;;;;;;;22.90;13.82;;;3.60;99.90;;;;;;5099579;28;20047;-81
2023/01/29 02:55:16;;;;;;;20.30;14.18;;;3.60;99.90;;;;;;5085107;28;20054;-81
2023/01/29 02:57:45;;;;;;;22.35;14.52;;;3.60;99.90;;;;;;5076632;28;20039;-82
2023/01/29 03:00:29;;;;;;;23.10;14.77;;;3.60;99.90;;;;;;5097152;28;20438;-82
2023/01/29 03:03:24;;;;;;;22.00;15.23;;;3.60;99.90;;;;;;5070470;28;20036;-82
2023/01/29 03:05:58;;;;;;;24.33;15.20;;;3.60;99.90;;;;;;5092162;28;20039;-83
2023/01/29 03:08:50;;;;;;;22.30;14.45;;;3.60;99.90;;;;;;5093863;28;20068;-82
2023/01/29 03:11:16;;;;;;;20.77;14.55;;;3.60;99.90;;;;;;5076007;28;20101;-82
2023/01/29 03:13:45;;;;;;;21.60;15.07;;;3.60;99.90;;;;;;5067817;28;20044;-82
2023/01/29 03:16:38;;;;;;;23.63;15.80;;;4.30;99.90;;;;;;5076211;28;20077;-82
2023/01/29 03:19:26;;;;;;;23.10;14.95;;;3.60;99.90;;;;;;5073600;28;20123;-82
2023/01/29 03:21:59;;;;;;;24.02;15.88;;;4.60;99.90;;;;;;5074239;28;20085;-82
2023/01/29 03:32:59;;;;;;;27.05;16.27;;;3.60;99.90;;;;;;5083116;28;20032;-82
2023/01/29 03:35:38;;;;;;;25.45;16.88;;;3.60;99.90;;;;;;5084791;28;20048;-82
2023/01/29 03:38:08;;;;;;;26.25;16.95;;;4.10;99.90;;;;;;5074440;28;20043;-82
2023/01/29 03:40:41;;;;;;;28.50;17.30;;;3.60;99.90;;;;;;5106101;28;20479;-81
2023/01/29 03:43:31;;;;;;;26.83;17.77;;;3.50;99.90;;;;;;5068935;28;20052;-82
2023/01/29 03:46:07;;;;;;;30.25;18.92;;;3.50;99.90;;;;;;5072374;28;20487;-82
2023/01/29 03:48:58;;;;;;;29.33;16.90;;;3.50;99.90;;;;;;5085891;28;20383;-82
2023/01/29 03:51:54;;;;;;;29.90;18.92;;;3.50;99.90;;;;;;5068456;28;20048;-82
2023/01/29 03:54:48;;;;;;;27.88;17.65;;;3.50;99.90;;;;;;5089449;28;20047;-82
2023/01/29 03:57:27;;;;;;;28.25;18.45;;;3.50;99.90;;;;;;5095393;28;20044;-82
2023/01/29 04:00:06;;;;;;;26.35;18.45;;;3.60;99.90;;;;;;5089359;28;20383;-82
2023/01/29 04:02:49;;;;;;;26.42;18.20;;;3.50;99.90;;;;;;5071755;28;20036;-82
2023/01/29 04:05:21;;;;;;;28.10;18.23;;;3.70;99.90;;;;;;5079289;28;20036;-82
2023/01/29 04:07:53;;;;;;;28.75;18.73;;;3.60;99.90;;;;;;5072196;28;20067;-82
2023/01/29 04:10:25;;;;;;;30.75;18.42;;;3.50;99.90;;;;;;5072183;28;20035;-82
2023/01/29 04:12:58;;;;;;;26.92;18.33;;;3.50;99.90;;;;;;5071901;28;20044;-82
2023/01/29 04:15:27;;;;;;;30.33;18.73;;;3.60;99.90;;;;;;5072165;28;20036;-82
2023/01/29 04:17:55;;;;;;;29.23;18.73;;;3.60;99.90;;;;;;5072869;28;20028;-82
2023/01/29 04:20:21;;;;;;;27.42;18.30;;;3.80;99.90;;;;;;5057093;28;20121;-82
2023/01/29 04:22:49;;;;;;;28.92;19.48;;;3.60;99.90;;;;;;5055636;28;20044;-81
2023/01/29 04:25:25;;;;;;;30.13;19.13;;;3.50;99.90;;;;;;5089294;28;20089;-83
2023/01/29 04:28:00;;;;;;;23.58;16.15;;;4.40;99.90;;;;;;5072899;28;20048;-82
2023/01/29 04:30:58;;;;;;;27.60;19.25;;;3.60;99.90;;;;;;5071072;28;20052;-82
2023/01/29 04:34:01;;;;;;;28.65;18.60;;;3.60;99.90;;;;;;5088660;28;20040;-82
2023/01/29 04:36:51;;;;;;;27.73;18.65;;;3.60;99.90;;;;;;5071877;28;20055;-81
2023/01/29 04:39:51;;;;;;;29.05;20.17;;;3.50;99.90;;;;;;5093383;28;20038;-81
2023/01/29 04:42:55;;;;;;;27.80;18.83;;;3.50;99.90;;;;;;5039891;28;20070;-81
2023/01/29 04:45:40;;;;;;;29.27;19.63;;;3.50;99.90;;;;;;5027419;28;20483;-81
2023/01/29 04:48:24;;;;;;;30.83;18.67;;;3.50;99.90;;;;;;5071920;28;20130;-81
2023/01/29 04:51:24;;;;;;;26.75;19.02;;;3.70;99.90;;;;;;5074087;28;20424;-81
2023/01/29 04:53:52;;;;;;;27.15;19.42;;;3.50;99.90;;;;;;5050931;28;20056;-81
2023/01/29 04:56:47;;;;;;;28.25;19.25;;;3.50;99.90;;;;;;5072775;28;20071;-81
2023/01/29 04:59:34;;;;;;;26.67;18.30;;;3.60;99.90;;;;;;5097454;28;20080;-81
2023/01/29 05:02:03;;;;;;;27.60;20.38;;;3.50;99.90;;;;;;5088379;28;20044;-81
2023/01/29 05:04:32;;;;;;;28.50;19.33;;;3.60;99.90;;;;;;5056795;28;20106;-81
2023/01/29 05:07:03;;;;;;;28.05;18.52;;;3.50;99.90;;;;;;5089595;28;20590;-81
2023/01/29 05:09:30;;;;;;;29.38;20.45;;;3.80;99.90;;;;;;5072809;28;20601;-82
2023/01/29 05:11:56;;;;;;;28.63;19.90;;;3.50;99.90;;;;;;5072018;28;20093;-81
2023/01/29 05:14:23;;;;;;;29.20;19.67;;;3.80;99.90;;;;;;5082261;28;20043;-81
2023/01/29 05:16:52;;;;;;;28.45;19.85;;;3.60;99.90;;;;;;5055147;28;20544;-81
2023/01/29 05:19:18;;;;;;;29.92;18.35;;;4.80;99.90;;;;;;5071978;28;20044;-81
2023/01/29 05:21:46;;;;;;;27.83;19.15;;;3.50;99.90;;;;;;5073201;28;20043;-82
2023/01/29 05:24:17;;;;;;;29.65;19.85;;;3.50;99.90;;;;;;5089481;28;20074;-81
2023/01/29 05:29:28;;;;;;;29.47;19.87;;;3.50;99.90;;;;;;5075149;28;20036;-81
2023/01/29 05:31:54;;;;;;;26.48;19.25;;;3.90;99.90;;;;;;5071800;28;20043;-81
2023/01/29 05:34:19;;;;;;;29.10;19.80;;;3.90;99.90;;;;;;5054931;28;20415;-81
2023/01/29 05:36:45;;;;;;;28.40;19.40;;;3.50;99.90;;;;;;5071741;28;20121;-81
2023/01/29 05:39:11;;;;;;;28.27;18.63;;;3.90;99.90;;;;;;5071808;28;20075;-81
2023/01/29 05:41:37;;;;;;;27.27;19.88;;;3.50;99.90;;;;;;5072093;28;20044;-81
2023/01/29 05:44:02;;;;;;;24.92;18.88;;;4.90;99.90;;;;;;5056178;28;20044;-81
2023/01/29 05:46:28;;;;;;;27.25;18.98;;;3.50;99.90;;;;;;5060756;28;20506;-81
2023/01/29 05:48:54;;;;;;;32.00;20.35;;;3.50;99.90;;;;;;5055700;28;20132;-81
2023/01/29 05:51:19;;;;;;;26.08;19.13;;;4.30;99.90;;;;;;5089077;28;20044;-82
2023/01/29 05:53:45;;;;;;;29.17;18.83;;;3.50;99.90;;;;;;5072761;28;20445;-82
2023/01/29 05:56:11;;;;;;;28.75;19.05;;;3.50;99.90;;;;;;5040269;28;20040;-82
2023/01/29 05:58:37;;;;;;;28.80;19.50;;;3.80;99.90;;;;;;5039108;28;20622;-82
2023/01/29 06:01:18;;;;;;;26.88;18.95;;;4.00;99.90;;;;;;5055341;28;20040;-82
2023/01/29 06:03:44;;;;;;;28.98;19.17;;;3.50;99.90;;;;;;5079091;28;20609;-82
2023/01/29 06:06:11;;;;;;;30.58;19.70;;;3.60;99.90;;;;;;5058030;28;20040;-81
2023/01/29 06:08:37;;;;;;;28.40;20.42;;;3.50;99.90;;;;;;5092563;28;20036;-81
2023/01/29 06:11:03;;;;;;;27.25;18.63;;;3.50;99.90;;;;;;5076156;28;20073;-81
2023/01/29 06:13:29;;;;;;;29.73;20.35;;;3.50;99.90;;;;;;5074714;28;20039;-81
2023/01/29 06:15:55;;;;;;;28.88;19.55;;;3.50;99.90;;;;;;5075662;28;20039;-81
2023/01/29 06:18:20;;;;;;;27.38;19.40;;;3.50;99.90;;;;;;5075659;28;20441;-81
2023/01/29 06:20:46;;;;;;;29.80;20.15;;;3.50;99.90;;;;;;5059947;28;20140;-81
2023/01/29 06:23:12;;;;;;;27.30;19.77;;;4.00;99.90;;;;;;5059165;28;20399;-81
2023/01/29 06:25:37;;;;;;;33.22;21.58;;;3.50;99.90;;;;;;5059831;28;20040;-81
2023/01/29 06:28:03;;;;;;;29.73;20.73;;;4.20;99.90;;;;;;5082837;28;20099;-81
2023/01/29 06:30:30;;;;;;;29.30;19.83;;;3.50;99.90;;;;;;5088306;28;20043;-81
2023/01/29 06:32:57;;;;;;;31.92;20.27;;;3.50;99.90;;;;;;5051126;28;20044;-81
2023/01/29 06:35:24;;;;;;;29.55;20.73;;;3.70;99.90;;;;;;5059391;28;20048;-81
2023/01/29 06:37:50;;;;;;;29.23;20.63;;;4.10;99.90;;;;;;5059558;28;20040;-81
2023/01/29 06:40:15;;;;;;;33.47;21.17;;;4.00;99.90;;;;;;5059642;28;20092;-81
2023/01/29 06:42:41;;;;;;;31.85;20.73;;;3.50;99.90;;;;;;5059090;28;20043;-81
2023/01/29 06:45:07;;;;;;;31.38;21.15;;;4.00;99.90;;;;;;5075552;28;20051;-81
2023/01/29 06:47:33;;;;;;;31.38;20.83;;;3.50;99.90;;;;;;5074901;28;20048;-81
2023/01/29 06:49:59;;;;;;;31.63;20.50;;;3.60;99.90;;;;;;5058403;28;20063;-81
2023/01/29 06:52:27;;;;;;;31.38;21.55;;;3.80;99.90;;;;;;5075531;28;20113;-81
2023/01/29 06:54:54;;;;;;;32.95;21.73;;;4.50;99.90;;;;;;5054057;28;20044;-81
2023/01/29 06:57:19;;;;;;;33.83;21.98;;;3.50;99.90;;;;;;5080713;28;20032;-81
2023/01/29 06:59:45;;;;;;;34.03;22.10;;;3.50;99.90;;;;;;5086869;28;20051;-81
2023/01/29 07:02:11;;;;;;;32.03;21.15;;;3.50;99.90;;;;;;5074420;28;20158;-81
2023/01/29 07:04:38;;;;;;;32.78;21.85;;;4.10;99.90;;;;;;5075600;28;20075;-81
2023/01/29 07:07:04;;;;;;;34.30;21.70;;;3.50;99.90;;;;;;5076162;28;20080;-81
2023/01/29 07:09:29;;;;;;;33.22;21.17;;;3.60;99.90;;;;;;5057492;28;20123;-81
2023/01/29 07:11:55;;;;;;;32.95;21.48;;;3.50;99.90;;;;;;5074738;28;20222;-81
2023/01/29 07:14:21;;;;;;;32.22;20.02;;;4.30;99.90;;;;;;5058849;28;20114;-81
2023/01/29 07:16:46;;;;;;;36.33;22.25;;;4.50;99.90;;;;;;5073961;28;20093;-81
2023/01/29 07:19:12;;;;;;;34.45;21.17;;;3.60;99.90;;;;;;5074329;28;20039;-81
2023/01/29 07:21:38;;;;;;;35.00;23.95;;;3.50;99.90;;;;;;5041559;28;20040;-81
2023/01/29 07:24:04;;;;;;;33.67;22.35;;;3.50;99.90;;;;;;5058253;28;20044;-81
2023/01/29 07:26:29;;;;;;;35.25;21.40;;;3.50;99.90;;;;;;5074197;28;20122;-81
2023/01/29 07:28:55;;;;;;;35.13;22.40;;;4.10;99.90;;;;;;5074321;28;20079;-81
2023/01/29 07:31:22;;;;;;;37.83;24.23;;;3.50;99.90;;;;;;5057434;28;20048;-82
2023/01/29 07:33:48;;;;;;;35.25;23.85;;;3.60;99.90;;;;;;5057397;28;20048;-82
2023/01/29 07:36:14;;;;;;;34.17;21.85;;;3.50;99.90;;;;;;5075012;28;20058;-82
2023/01/29 07:38:39;;;;;;;32.67;22.27;;;3.50;99.90;;;;;;5075237;28;20538;-82
2023/01/29 07:41:05;;;;;;;36.30;23.25;;;3.50;99.90;;;;;;5058187;28;20068;-82
2023/01/29 07:43:31;;;;;;;37.40;22.65;;;3.60;99.90;;;;;;5075558;28;20079;-81
2023/01/29 07:46:01;;;;;;;34.60;22.35;;;3.50;99.90;;;;;;5057349;28;20035;-81
2023/01/29 07:48:27;;;;;;;31.95;22.02;;;3.60;99.90;;;;;;5054117;28;20056;-81
2023/01/29 07:50:54;;;;;;;32.60;20.90;;;3.60;99.90;;;;;;5058531;28;20495;-81
2023/01/29 07:53:20;;;;;;;33.80;22.52;;;3.60;99.90;;;;;;5056808;28;20036;-82
2023/01/29 07:55:46;;;;;;;34.70;22.75;;;3.80;99.90;;;;;;5055671;28;20040;-81
2023/01/29 07:58:12;;;;;;;38.33;22.42;;;4.80;99.90;;;;;;5041920;28;20097;-86
2023/01/29 08:00:38;;;;;;;36.25;21.42;;;5.10;99.90;;;;;;5074705;28;20074;-85
2023/01/29 08:03:14;;;;;;;37.17;23.27;;;3.50;99.90;;;;;;5116055;28;20068;-84
2023/01/29 08:05:41;;;;;;;36.38;21.88;;;4.40;99.90;;;;;;5091403;28;20096;-85
2023/01/29 08:08:07;;;;;;;36.25;21.77;;;4.00;99.90;;;;;;5091984;28;20040;-85
2023/01/29 08:10:33;;;;;;;33.65;22.35;;;4.20;99.90;;;;;;5057781;28;20044;-86
2023/01/29 08:13:00;;;;;;;35.42;23.17;;;3.50;99.90;;;;;;5074869;28;20047;-86
2023/01/29 08:15:27;;;;;;;35.28;22.35;;;3.60;99.90;;;;;;5074266;28;20039;-85
2023/01/29 08:17:53;;;;;;;35.08;22.40;;;5.20;99.90;;;;;;5097579;28;20090;-85
2023/01/29 08:20:20;;;;;;;35.20;23.80;;;3.60;99.90;;;;;;5075206;28;20514;-86
2023/01/29 08:22:46;;;;;;;31.73;20.67;;;5.30;99.90;;;;;;5074170;28;20580;-86
2023/01/29 08:25:12;;;;;;;32.75;21.83;;;4.10;99.90;;;;;;5058835;28;20048;-85
2023/01/29 08:27:38;;;;;;;33.17;21.52;;;3.60;99.90;;;;;;5074819;28;20040;-84
2023/01/29 08:30:06;;;;;;;34.60;21.23;;;3.60;99.90;;;;;;5056972;28;20054;-86
2023/01/29 08:32:32;;;;;;;34.63;21.73;;;3.60;99.90;;;;;;5073566;28;20051;-83
2023/01/29 08:34:57;;;;;;;34.88;21.88;;;4.60;99.90;;;;;;5071727;28;20056;-84
2023/01/29 08:37:23;;;;;;;36.00;21.92;;;3.70;99.90;;;;;;5056317;28;20036;-83
2023/01/29 08:39:49;;;;;;;36.65;23.83;;;4.20;99.90;;;;;;5072863;28;20035;-85
2023/01/29 08:42:15;;;;;;;37.70;22.95;;;3.80;99.90;;;;;;5089163;28;20075;-85
2023/01/29 08:44:40;;;;;;;31.42;21.52;;;3.70;99.90;;;;;;5062745;28;20095;-86
2023/01/29 08:47:06;;;;;;;33.35;22.00;;;3.70;99.90;;;;;;5071927;28;20047;-86
2023/01/29 08:49:32;;;;;;;33.95;21.35;;;3.80;99.90;;;;;;5056365;28;20484;-85
2023/01/29 08:51:58;;;;;;;32.45;21.90;;;3.80;99.90;;;;;;5073391;28;20032;-85
2023/01/29 08:54:23;;;;;;;33.20;21.23;;;3.80;99.90;;;;;;5072557;28;20496;-84
2023/01/29 08:56:50;;;;;;;31.88;21.67;;;4.20;99.90;;;;;;5073522;28;20039;-83
2023/01/29 08:59:16;;;;;;;33.22;20.88;;;5.40;99.90;;;;;;5073372;28;20036;-84
2023/01/29 09:01:42;;;;;;;32.92;21.67;;;4.30;99.90;;;;;;5078276;28;20075;-87
2023/01/29 09:04:07;;;;;;;32.65;23.02;;;5.60;99.90;;;;;;5084187;28;20036;-85
2023/01/29 09:06:33;;;;;;;34.05;21.25;;;5.10;99.90;;;;;;5090853;28;20067;-84
2023/01/29 09:08:59;;;;;;;33.35;21.92;;;3.90;99.90;;;;;;5072923;28;20075;-83
2023/01/29 09:11:25;;;;;;;35.13;22.88;;;4.20;99.90;;;;;;5091379;28;20490;-84
2023/01/29 09:13:51;;;;;;;34.33;22.98;;;3.80;99.90;;;;;;5072805;28;20032;-84
2023/01/29 09:16:17;;;;;;;33.47;22.23;;;4.10;99.90;;;;;;5073299;28;20031;-86
2023/01/29 09:18:42;;;;;;;32.25;20.85;;;4.80;99.90;;;;;;5056894;28;20072;-85
2023/01/29 09:21:09;;;;;;;34.28;22.27;;;4.00;99.90;;;;;;5058325;28;20027;-85
2023/01/29 09:23:34;;;;;;;29.50;20.90;;;5.40;99.90;;;;;;5083962;28;20032;-85
2023/01/29 09:26:00;;;;;;;33.90;22.75;;;4.30;99.90;;;;;;5066773;28;20058;-84
2023/01/29 09:28:26;;;;;;;32.20;20.77;;;4.70;99.90;;;;;;5076006;28;20118;-85
2023/01/29 09:30:52;;;;;;;31.70;21.48;;;4.20;99.90;;;;;;5077942;28;20040;-84
2023/01/29 09:33:18;;;;;;;30.75;21.50;;;4.20;99.90;;;;;;5094733;28;20425;-85
2023/01/29 09:35:47;;;;;;;34.28;22.17;;;4.20;99.90;;;;;;5077308;28;20092;-84
2023/01/29 09:38:13;;;;;;;32.85;22.20;;;4.70;99.90;;;;;;5073808;28;20112;-85
2023/01/29 09:40:58;;;;;;;31.08;21.27;;;4.20;99.90;;;;;;5075442;28;20072;-85
2023/01/29 09:43:39;;;;;;;31.05;21.17;;;4.60;99.90;;;;;;5075598;28;20040;-85
2023/01/29 09:46:21;;;;;;;32.58;20.00;;;4.30;99.90;;;;;;5072733;28;20504;-85
2023/01/29 09:48:57;;;;;;;31.05;21.27;;;4.30;99.90;;;;;;5091528;28;20035;-85
2023/01/29 09:52:01;;;;;;;34.40;21.65;;;4.30;99.90;;;;;;5077317;28;20048;-84
2023/01/29 09:54:33;;;;;;;32.10;22.17;;;4.90;99.90;;;;;;5032503;28;20058;-85
2023/01/29 09:57:00;;;;;;;31.52;21.95;;;5.00;99.90;;;;;;5072405;28;20048;-84
2023/01/29 09:59:30;;;;;;;31.70;22.23;;;4.70;99.90;;;;;;5071221;28;20042;-85
2023/01/29 10:02:40;;;;;;;31.27;21.08;;;5.70;99.90;;;;;;5072210;28;20075;-84
2023/01/29 10:05:36;;;;;;;26.88;19.10;;;4.50;99.90;;;;;;5092917;28;20047;-84
2023/01/29 10:08:21;;;;;;;28.30;19.48;;;4.50;99.90;;;;;;5093876;28;20095;-84
2023/01/29 10:10:50;;;;;;;32.60;21.35;;;4.50;99.90;;;;;;5096353;28;20058;-84
2023/01/29 10:13:41;;;;;;;33.20;20.95;;;4.50;99.90;;;;;;5071346;28;20514;-85
2023/01/29 10:16:13;;;;;;;30.92;21.40;;;4.60;99.90;;;;;;5074170;28;20040;-85
2023/01/29 10:19:17;;;;;;;32.25;21.02;;;4.60;99.90;;;;;;5073692;28;20043;-85
2023/01/29 10:21:52;;;;;;;34.35;22.52;;;4.70;99.90;;;;;;5073784;28;20055;-87
2023/01/29 10:24:38;;;;;;;32.05;20.73;;;4.80;99.90;;;;;;5074551;28;20128;-85
2023/01/29 10:27:18;;;;;;;33.22;22.17;;;4.80;99.90;;;;;;5087443;28;20464;-84
2023/01/29 10:29:46;;;;;;;32.22;22.25;;;4.90;99.90;;;;;;5092503;28;20133;-82
2023/01/29 10:32:17;;;;;;;30.65;20.70;;;5.10;99.90;;;;;;5049955;28;20100;-81
2023/01/29 10:34:56;;;;;;;30.83;20.73;;;4.90;99.90;;;;;;5081403;28;20135;-82
2023/01/29 10:37:25;;;;;;;31.67;21.67;;;4.90;99.90;;;;;;5072055;28;20051;-82
2023/01/29 10:39:51;;;;;;;27.17;19.92;;;4.90;99.90;;;;;;5085765;28;20032;-82
2023/01/29 10:42:29;;;;;;;31.75;20.45;;;5.00;99.90;;;;;;5053904;28;20094;-82
2023/01/29 10:44:58;;;;;;;33.40;20.73;;;4.80;99.90;;;;;;5071029;28;20046;-82
2023/01/29 10:47:27;;;;;;;29.83;20.58;;;5.40;99.90;;;;;;5088114;28;20391;-82
2023/01/29 10:50:12;;;;;;;31.10;20.35;;;4.90;99.90;;;;;;5072050;28;20040;-83
2023/01/29 10:53:04;;;;;;;31.35;20.85;;;4.80;99.90;;;;;;5075482;28;20062;-82
2023/01/29 10:55:58;;;;;;;30.63;19.52;;;4.80;99.90;;;;;;5074543;28;20032;-82
2023/01/29 10:58:42;;;;;;;29.35;19.15;;;4.80;99.90;;;;;;5091727;28;20047;-82
2023/01/29 11:01:09;;;;;;;28.05;19.77;;;4.90;99.90;;;;;;5074218;28;20032;-82
2023/01/29 11:03:35;;;;;;;32.05;21.15;;;4.90;99.90;;;;;;5072914;28;20039;-83
2023/01/29 11:06:27;;;;;;;31.92;20.85;;;5.30;99.90;;;;;;5075467;28;20075;-82
2023/01/29 11:09:08;;;;;;;28.75;19.02;;;4.90;99.90;;;;;;5091968;28;20036;-83
2023/01/29 11:11:58;;;;;;;30.27;21.25;;;5.00;99.90;;;;;;5093921;28;20048;-83
2023/01/29 11:14:28;;;;;;;30.83;20.40;;;5.30;99.90;;;;;;5083128;28;20127;-82
2023/01/29 11:16:54;;;;;;;31.65;21.08;;;5.00;99.90;;;;;;5091479;28;20040;-83
2023/01/29 11:19:43;;;;;;;31.25;20.52;;;5.50;99.90;;;;;;5073467;28;20062;-82
2023/01/29 11:22:20;;;;;;;29.02;20.15;;;5.10;99.90;;;;;;5075284;28;20838;-84
2023/01/29 11:25:07;;;;;;;33.20;20.50;;;5.00;99.90;;;;;;5090108;28;20122;-83
2023/01/29 11:27:38;;;;;;;32.53;20.98;;;5.00;99.90;;;;;;5079684;28;20124;-83
2023/01/29 11:30:04;;;;;;;35.78;21.52;;;5.00;99.90;;;;;;5096374;28;20040;-84
2023/01/29 11:32:33;;;;;;;28.55;19.90;;;5.10;99.90;;;;;;5074711;28;20104;-85
2023/01/29 11:35:14;;;;;;;29.02;18.45;;;5.10;99.90;;;;;;5073011;28;20141;-86
2023/01/29 11:37:42;;;;;;;34.72;20.92;;;5.20;99.90;;;;;;5084420;28;20048;-85
2023/01/29 11:40:34;;;;;;;29.85;20.65;;;6.50;99.90;;;;;;5060020;28;20036;-87
2023/01/29 11:43:12;;;;;;;30.08;20.35;;;5.20;99.90;;;;;;5093023;28;20629;-86
2023/01/29 11:45:39;;;;;;;30.70;20.27;;;5.20;99.90;;;;;;5075936;28;20044;-87
2023/01/29 11:48:13;;;;;;;32.65;20.58;;;5.20;99.90;;;;;;5060001;28;20067;-87
2023/01/29 11:50:39;;;;;;;30.58;21.20;;;5.20;99.90;;;;;;5075561;28;20056;-88
2023/01/29 11:53:17;;;;;;;28.85;19.92;;;5.10;99.90;;;;;;5077121;28;20051;-88
2023/01/29 11:55:46;;;;;;;31.10;20.63;;;5.00;99.90;;;;;;5052721;28;20032;-85
2023/01/29 11:58:31;;;;;;;27.05;18.83;;;5.80;99.90;;;;;;5073716;28;20047;-82
2023/01/29 12:00:58;;;;;;;29.00;20.13;;;5.00;99.90;;;;;;5072668;28;20437;-82
2023/01/29 12:03:31;;;;;;;30.38;20.40;;;4.90;99.90;;;;;;5089509;28;20093;-82
2023/01/29 12:06:07;;;;;;;28.63;19.63;;;4.90;99.90;;;;;;5075684;28;20042;-83
2023/01/29 12:08:38;;;;;;;35.53;19.92;;;4.90;99.90;;;;;;5089894;28;20464;-83
2023/01/29 12:11:13;;;;;;;30.67;20.60;;;4.80;99.90;;;;;;5072691;28;20040;-84
2023/01/29 12:13:42;;;;;;;32.35;20.52;;;4.80;99.90;;;;;;5073131;28;20115;-83
2023/01/29 12:16:32;;;;;;;30.85;18.70;;;4.80;99.90;;;;;;5073628;28;20044;-81
2023/01/29 12:19:32;;;;;;;29.85;20.35;;;4.80;99.90;;;;;;5074020;28;20043;-83
2023/01/29 12:22:04;;;;;;;31.02;20.25;;;4.80;99.90;;;;;;5074109;28;20040;-82
2023/01/29 12:24:56;;;;;;;33.55;20.92;;;5.40;99.90;;;;;;5075200;28;20093;-82
2023/01/29 12:27:35;;;;;;;30.83;20.33;;;4.80;99.90;;;;;;5079753;28;20096;-82
2023/01/29 12:30:13;;;;;;;31.88;20.38;;;4.80;99.90;;;;;;5090942;28;20078;-82
2023/01/29 12:32:41;;;;;;;32.53;21.70;;;4.90;99.90;;;;;;5085790;28;20102;-82
2023/01/29 12:35:23;;;;;;;30.40;20.60;;;4.90;99.90;;;;;;5072117;28;20411;-83
2023/01/29 12:38:11;;;;;;;32.10;21.48;;;4.90;99.90;;;;;;5090606;28;20407;-82
2023/01/29 12:40:46;;;;;;;31.05;20.60;;;4.90;99.90;;;;;;5072421;28;20048;-82
2023/01/29 12:43:16;;;;;;;32.17;20.90;;;4.90;99.90;;;;;;5072702;28;20036;-82
2023/01/29 12:45:47;;;;;;;33.20;21.50;;;4.90;99.90;;;;;;5088377;28;20058;-83
2023/01/29 12:48:23;;;;;;;32.20;21.58;;;4.90;99.90;;;;;;5089384;28;20499;-82
2023/01/29 12:50:52;;;;;;;32.13;21.40;;;4.80;99.90;;;;;;5081262;28;20047;-82
2023/01/29 12:53:34;;;;;;;36.03;21.45;;;4.80;99.90;;;;;;5047451;28;20029;-82
2023/01/29 12:56:29;;;;;;;31.10;19.83;;;5.20;99.90;;;;;;5076529;28;20483;-83
2023/01/29 12:58:56;;;;;;;34.03;21.27;;;4.70;99.90;;;;;;5075495;28;20044;-82
2023/01/29 13:01:43;;;;;;;34.50;21.88;;;5.20;99.90;;;;;;5073565;28;20040;-82
2023/01/29 13:04:13;;;;;;;34.00;22.10;;;4.70;99.90;;;;;;5073917;28;20050;-82
2023/01/29 13:06:48;;;;;;;32.35;22.02;;;4.90;99.90;;;;;;5076698;28;20040;-82
2023/01/29 13:09:21;;;;;;;36.83;21.58;;;4.60;99.90;;;;;;5090578;28;20123;-82
2023/01/29 13:12:15;;;;;;;34.50;22.77;;;4.60;99.90;;;;;;5078779;28;20040;-82
2023/01/29 13:14:52;;;;;;;38.38;22.73;;;4.60;99.90;;;;;;5076915;28;20074;-82
2023/01/29 13:17:30;;;;;;;35.60;22.63;;;4.60;99.90;;;;;;5067710;28;20412;-82
2023/01/29 13:20:04;;;;;;;34.78;22.88;;;4.60;99.90;;;;;;5073529;28;20153;-82
2023/01/29 13:22:36;;;;;;;34.85;22.50;;;4.60;99.90;;;;;;5092555;28;20040;-82
2023/01/29 13:25:03;;;;;;;37.72;24.88;;;5.70;99.90;;;;;;5064936;28;20118;-84
2023/01/29 13:27:32;;;;;;;32.85;22.60;;;4.50;99.90;;;;;;5069972;28;20040;-84
2023/01/29 13:29:59;;;;;;;35.50;23.08;;;4.80;99.90;;;;;;5072383;28;20128;-84
2023/01/29 13:32:33;;;;;;;33.78;21.27;;;4.60;99.90;;;;;;5072970;28;20040;-83